sensor_id;sensor_type;location;lat;lon;timestamp;P1;durP1;ratioP1;P2;durP2;ratioP2
7477;SDS011;3780;42.424;25.636;2023-09-12T00:01:46;2.58;;;1.27;;
7477;SDS011;3780;42.424;25.636;2023-09-12T00:04:11;3.13;;;1.05;;
7477;SDS011;3780;42.424;25.636;2023-09-12T00:06:37;2.35;;;1.52;;
7477;SDS011;3780;42.424;25.636;2023-09-12T00:09:02;7.47;;;1.67;;
7477;SDS011;3780;42.424;25.636;2023-09-12T00:11:30;4.38;;;1.10;;
7477;SDS011;3780;42.424;25.636;2023-09-12T00:13:55;2.65;;;1.30;;
7477;SDS011;3780;42.424;25.636;2023-09-12T00:16:21;3.80;;;1.40;;
7477;SDS011;3780;42.424;25.636;2023-09-12T00:18:46;3.50;;;1.33;;
7477;SDS011;3780;42.424;25.636;2023-09-12T00:21:11;4.18;;;1.33;;
7477;SDS011;3780;42.424;25.636;2023-09-12T00:23:37;3.35;;;1.40;;
7477;SDS011;3780;42.424;25.636;2023-09-12T00:26:02;4.82;;;1.52;;
7477;SDS011;3780;42.424;25.636;2023-09-12T00:28:27;2.72;;;1.20;;
7477;SDS011;3780;42.424;25.636;2023-09-12T00:30:53;4.28;;;1.15;;
7477;SDS011;3780;42.424;25.636;2023-09-12T00:33:18;3.28;;;1.00;;
7477;SDS011;3780;42.424;25.636;2023-09-12T00:35:44;5.53;;;1.40;;
7477;SDS011;3780;42.424;25.636;2023-09-12T00:38:09;4.28;;;1.40;;
7477;SDS011;3780;42.424;25.636;2023-09-12T00:40:35;2.05;;;1.17;;
7477;SDS011;3780;42.424;25.636;2023-09-12T00:43:00;3.08;;;1.30;;
7477;SDS011;3780;42.424;25.636;2023-09-12T00:45:25;4.13;;;1.17;;
7477;SDS011;3780;42.424;25.636;2023-09-12T00:47:51;7.72;;;1.77;;
7477;SDS011;3780;42.424;25.636;2023-09-12T00:50:16;4.55;;;1.13;;
7477;SDS011;3780;42.424;25.636;2023-09-12T00:52:43;5.22;;;1.73;;
7477;SDS011;3780;42.424;25.636;2023-09-12T00:55:08;4.90;;;1.23;;
7477;SDS011;3780;42.424;25.636;2023-09-12T00:57:34;3.30;;;1.48;;
7477;SDS011;3780;42.424;25.636;2023-09-12T00:59:59;1.98;;;1.23;;
7477;SDS011;3780;42.424;25.636;2023-09-12T01:02:26;2.72;;;1.50;;
7477;SDS011;3780;42.424;25.636;2023-09-12T01:04:51;5.07;;;1.45;;
7477;SDS011;3780;42.424;25.636;2023-09-12T01:07:17;3.97;;;1.67;;
7477;SDS011;3780;42.424;25.636;2023-09-12T01:09:42;3.38;;;1.45;;
7477;SDS011;3780;42.424;25.636;2023-09-12T01:12:08;5.88;;;1.70;;
7477;SDS011;3780;42.424;25.636;2023-09-12T01:14:33;4.32;;;1.58;;
7477;SDS011;3780;42.424;25.636;2023-09-12T01:16:58;2.85;;;1.45;;
7477;SDS011;3780;42.424;25.636;2023-09-12T01:19:24;7.90;;;1.38;;
7477;SDS011;3780;42.424;25.636;2023-09-12T01:29:23;6.57;;;1.50;;
7477;SDS011;3780;42.424;25.636;2023-09-12T01:31:50;3.35;;;1.40;;
7477;SDS011;3780;42.424;25.636;2023-09-12T01:34:15;4.07;;;1.35;;
7477;SDS011;3780;42.424;25.636;2023-09-12T01:36:41;3.90;;;1.40;;
7477;SDS011;3780;42.424;25.636;2023-09-12T01:39:06;4.35;;;1.45;;
7477;SDS011;3780;42.424;25.636;2023-09-12T01:41:32;3.17;;;1.30;;
7477;SDS011;3780;42.424;25.636;2023-09-12T01:43:59;4.03;;;1.25;;
7477;SDS011;3780;42.424;25.636;2023-09-12T01:46:26;3.90;;;1.27;;
7477;SDS011;3780;42.424;25.636;2023-09-12T01:48:51;5.60;;;1.67;;
7477;SDS011;3780;42.424;25.636;2023-09-12T01:51:18;5.07;;;1.50;;
7477;SDS011;3780;42.424;25.636;2023-09-12T01:53:44;4.18;;;1.35;;
7477;SDS011;3780;42.424;25.636;2023-09-12T01:56:10;2.00;;;1.20;;
7477;SDS011;3780;42.424;25.636;2023-09-12T01:58:35;2.97;;;1.50;;
7477;SDS011;3780;42.424;25.636;2023-09-12T02:01:01;7.38;;;1.75;;
7477;SDS011;3780;42.424;25.636;2023-09-12T02:03:26;1.73;;;1.33;;
7477;SDS011;3780;42.424;25.636;2023-09-12T02:05:52;4.13;;;1.50;;
7477;SDS011;3780;42.424;25.636;2023-09-12T02:08:17;3.80;;;1.20;;
7477;SDS011;3780;42.424;25.636;2023-09-12T02:10:42;2.47;;;1.30;;
7477;SDS011;3780;42.424;25.636;2023-09-12T02:13:07;6.45;;;1.40;;
7477;SDS011;3780;42.424;25.636;2023-09-12T02:15:33;5.40;;;1.60;;
7477;SDS011;3780;42.424;25.636;2023-09-12T02:17:58;7.55;;;1.73;;
7477;SDS011;3780;42.424;25.636;2023-09-12T02:20:23;5.63;;;1.40;;
7477;SDS011;3780;42.424;25.636;2023-09-12T02:22:49;7.85;;;1.73;;
7477;SDS011;3780;42.424;25.636;2023-09-12T02:25:14;2.53;;;1.10;;
7477;SDS011;3780;42.424;25.636;2023-09-12T02:27:39;3.55;;;1.38;;
7477;SDS011;3780;42.424;25.636;2023-09-12T02:30:05;5.57;;;1.40;;
7477;SDS011;3780;42.424;25.636;2023-09-12T02:32:30;4.88;;;1.30;;
7477;SDS011;3780;42.424;25.636;2023-09-12T02:34:56;3.65;;;2.28;;
7477;SDS011;3780;42.424;25.636;2023-09-12T02:37:22;3.95;;;1.58;;
7477;SDS011;3780;42.424;25.636;2023-09-12T02:39:47;6.20;;;2.35;;
7477;SDS011;3780;42.424;25.636;2023-09-12T02:42:12;3.70;;;1.50;;
7477;SDS011;3780;42.424;25.636;2023-09-12T02:44:38;4.68;;;1.30;;
7477;SDS011;3780;42.424;25.636;2023-09-12T02:47:03;5.13;;;1.50;;
7477;SDS011;3780;42.424;25.636;2023-09-12T02:49:28;3.55;;;1.75;;
7477;SDS011;3780;42.424;25.636;2023-09-12T02:51:54;8.93;;;1.70;;
7477;SDS011;3780;42.424;25.636;2023-09-12T02:54:19;6.40;;;1.80;;
7477;SDS011;3780;42.424;25.636;2023-09-12T02:56:44;4.60;;;1.60;;
7477;SDS011;3780;42.424;25.636;2023-09-12T02:59:10;6.45;;;1.70;;
7477;SDS011;3780;42.424;25.636;2023-09-12T03:01:35;6.53;;;1.90;;
7477;SDS011;3780;42.424;25.636;2023-09-12T03:04:00;7.28;;;1.73;;
7477;SDS011;3780;42.424;25.636;2023-09-12T03:06:25;9.50;;;2.17;;
7477;SDS011;3780;42.424;25.636;2023-09-12T03:08:51;9.68;;;2.10;;
7477;SDS011;3780;42.424;25.636;2023-09-12T03:11:16;6.00;;;1.88;;
7477;SDS011;3780;42.424;25.636;2023-09-12T03:13:41;5.63;;;1.80;;
7477;SDS011;3780;42.424;25.636;2023-09-12T03:16:10;6.47;;;1.90;;
7477;SDS011;3780;42.424;25.636;2023-09-12T03:18:36;7.85;;;2.42;;
7477;SDS011;3780;42.424;25.636;2023-09-12T03:21:01;7.22;;;1.88;;
7477;SDS011;3780;42.424;25.636;2023-09-12T03:23:27;7.25;;;2.17;;
7477;SDS011;3780;42.424;25.636;2023-09-12T03:25:52;13.32;;;2.42;;
7477;SDS011;3780;42.424;25.636;2023-09-12T03:28:17;6.18;;;2.22;;
7477;SDS011;3780;42.424;25.636;2023-09-12T03:30:43;8.27;;;2.63;;
7477;SDS011;3780;42.424;25.636;2023-09-12T03:33:08;7.10;;;2.50;;
7477;SDS011;3780;42.424;25.636;2023-09-12T03:35:33;7.72;;;2.30;;
7477;SDS011;3780;42.424;25.636;2023-09-12T03:37:59;10.20;;;2.17;;
7477;SDS011;3780;42.424;25.636;2023-09-12T03:40:25;7.55;;;2.20;;
7477;SDS011;3780;42.424;25.636;2023-09-12T03:42:50;6.38;;;2.08;;
7477;SDS011;3780;42.424;25.636;2023-09-12T03:45:15;9.25;;;2.08;;
7477;SDS011;3780;42.424;25.636;2023-09-12T03:47:41;11.25;;;2.40;;
7477;SDS011;3780;42.424;25.636;2023-09-12T03:50:07;4.00;;;1.75;;
7477;SDS011;3780;42.424;25.636;2023-09-12T03:52:32;3.10;;;1.90;;
7477;SDS011;3780;42.424;25.636;2023-09-12T03:54:58;6.88;;;2.40;;
7477;SDS011;3780;42.424;25.636;2023-09-12T03:57:25;8.57;;;2.50;;
7477;SDS011;3780;42.424;25.636;2023-09-12T03:59:51;7.45;;;2.10;;
7477;SDS011;3780;42.424;25.636;2023-09-12T04:02:17;8.05;;;2.67;;
7477;SDS011;3780;42.424;25.636;2023-09-12T04:04:43;11.98;;;2.97;;
7477;SDS011;3780;42.424;25.636;2023-09-12T04:07:08;10.63;;;2.60;;
7477;SDS011;3780;42.424;25.636;2023-09-12T04:09:33;5.80;;;1.75;;
7477;SDS011;3780;42.424;25.636;2023-09-12T04:11:59;9.57;;;2.47;;
7477;SDS011;3780;42.424;25.636;2023-09-12T04:14:24;7.72;;;2.55;;
7477;SDS011;3780;42.424;25.636;2023-09-12T04:16:49;7.90;;;2.22;;
7477;SDS011;3780;42.424;25.636;2023-09-12T04:19:14;8.55;;;2.17;;
7477;SDS011;3780;42.424;25.636;2023-09-12T04:21:40;9.23;;;3.35;;
7477;SDS011;3780;42.424;25.636;2023-09-12T04:24:06;34.45;;;6.13;;
7477;SDS011;3780;42.424;25.636;2023-09-12T04:26:31;18.63;;;5.18;;
7477;SDS011;3780;42.424;25.636;2023-09-12T04:28:56;14.15;;;5.47;;
7477;SDS011;3780;42.424;25.636;2023-09-12T04:31:22;14.63;;;6.18;;
7477;SDS011;3780;42.424;25.636;2023-09-12T04:33:47;30.88;;;7.20;;
7477;SDS011;3780;42.424;25.636;2023-09-12T04:36:12;18.95;;;5.75;;
7477;SDS011;3780;42.424;25.636;2023-09-12T04:38:38;31.90;;;9.07;;
7477;SDS011;3780;42.424;25.636;2023-09-12T04:41:03;12.00;;;5.88;;
7477;SDS011;3780;42.424;25.636;2023-09-12T04:43:31;22.00;;;10.27;;
7477;SDS011;3780;42.424;25.636;2023-09-12T04:45:57;9.73;;;3.20;;
7477;SDS011;3780;42.424;25.636;2023-09-12T04:48:22;20.17;;;3.10;;
7477;SDS011;3780;42.424;25.636;2023-09-12T04:50:48;11.90;;;2.40;;
7477;SDS011;3780;42.424;25.636;2023-09-12T04:53:13;13.30;;;4.38;;
7477;SDS011;3780;42.424;25.636;2023-09-12T04:55:39;16.42;;;4.88;;
7477;SDS011;3780;42.424;25.636;2023-09-12T04:58:04;21.13;;;4.75;;
7477;SDS011;3780;42.424;25.636;2023-09-12T05:00:30;41.33;;;16.25;;
7477;SDS011;3780;42.424;25.636;2023-09-12T05:02:55;9.63;;;5.15;;
7477;SDS011;3780;42.424;25.636;2023-09-12T05:05:20;25.30;;;4.65;;
7477;SDS011;3780;42.424;25.636;2023-09-12T05:07:46;12.95;;;3.80;;
7477;SDS011;3780;42.424;25.636;2023-09-12T05:10:11;10.10;;;3.65;;
7477;SDS011;3780;42.424;25.636;2023-09-12T05:12:36;17.35;;;4.28;;
7477;SDS011;3780;42.424;25.636;2023-09-12T05:15:02;10.30;;;4.55;;
7477;SDS011;3780;42.424;25.636;2023-09-12T05:17:27;25.30;;;4.82;;
7477;SDS011;3780;42.424;25.636;2023-09-12T05:19:53;28.67;;;8.10;;
7477;SDS011;3780;42.424;25.636;2023-09-12T05:22:18;19.73;;;3.78;;
7477;SDS011;3780;42.424;25.636;2023-09-12T05:24:43;17.77;;;4.00;;
7477;SDS011;3780;42.424;25.636;2023-09-12T05:27:09;21.65;;;3.72;;
7477;SDS011;3780;42.424;25.636;2023-09-12T05:29:34;11.75;;;2.67;;
7477;SDS011;3780;42.424;25.636;2023-09-12T05:31:59;56.10;;;36.90;;
7477;SDS011;3780;42.424;25.636;2023-09-12T05:34:25;38.97;;;20.15;;
7477;SDS011;3780;42.424;25.636;2023-09-12T05:36:50;28.40;;;16.92;;
7477;SDS011;3780;42.424;25.636;2023-09-12T05:39:15;15.07;;;7.07;;
7477;SDS011;3780;42.424;25.636;2023-09-12T05:41:40;14.32;;;4.93;;
7477;SDS011;3780;42.424;25.636;2023-09-12T05:44:06;20.13;;;4.45;;
7477;SDS011;3780;42.424;25.636;2023-09-12T05:46:31;11.75;;;3.88;;
7477;SDS011;3780;42.424;25.636;2023-09-12T05:48:56;19.63;;;4.10;;
7477;SDS011;3780;42.424;25.636;2023-09-12T05:51:22;28.42;;;6.82;;
7477;SDS011;3780;42.424;25.636;2023-09-12T05:53:47;12.02;;;3.60;;
7477;SDS011;3780;42.424;25.636;2023-09-12T05:56:12;12.75;;;4.35;;
7477;SDS011;3780;42.424;25.636;2023-09-12T05:58:37;19.55;;;4.85;;
7477;SDS011;3780;42.424;25.636;2023-09-12T06:01:07;24.90;;;7.20;;
7477;SDS011;3780;42.424;25.636;2023-09-12T06:03:32;29.60;;;6.03;;
7477;SDS011;3780;42.424;25.636;2023-09-12T06:05:58;43.63;;;12.35;;
7477;SDS011;3780;42.424;25.636;2023-09-12T06:08:23;35.22;;;11.23;;
7477;SDS011;3780;42.424;25.636;2023-09-12T06:10:49;45.88;;;13.40;;
7477;SDS011;3780;42.424;25.636;2023-09-12T06:13:18;63.38;;;13.48;;
7477;SDS011;3780;42.424;25.636;2023-09-12T06:15:43;49.28;;;11.98;;
7477;SDS011;3780;42.424;25.636;2023-09-12T06:18:09;43.60;;;10.20;;
7477;SDS011;3780;42.424;25.636;2023-09-12T06:20:34;20.77;;;5.43;;
7477;SDS011;3780;42.424;25.636;2023-09-12T06:22:59;19.55;;;4.68;;
7477;SDS011;3780;42.424;25.636;2023-09-12T06:25:25;30.00;;;7.47;;
7477;SDS011;3780;42.424;25.636;2023-09-12T06:27:50;16.25;;;4.97;;
7477;SDS011;3780;42.424;25.636;2023-09-12T06:30:15;9.77;;;2.85;;
7477;SDS011;3780;42.424;25.636;2023-09-12T06:32:41;22.63;;;4.82;;
7477;SDS011;3780;42.424;25.636;2023-09-12T06:35:06;12.55;;;4.70;;
7477;SDS011;3780;42.424;25.636;2023-09-12T06:37:32;18.35;;;3.80;;
7477;SDS011;3780;42.424;25.636;2023-09-12T06:39:57;19.52;;;3.90;;
7477;SDS011;3780;42.424;25.636;2023-09-12T06:42:22;23.58;;;4.53;;
7477;SDS011;3780;42.424;25.636;2023-09-12T06:44:47;23.98;;;4.35;;
7477;SDS011;3780;42.424;25.636;2023-09-12T06:47:13;16.85;;;4.25;;
7477;SDS011;3780;42.424;25.636;2023-09-12T06:49:38;15.57;;;4.25;;
7477;SDS011;3780;42.424;25.636;2023-09-12T06:52:04;17.08;;;4.00;;
7477;SDS011;3780;42.424;25.636;2023-09-12T06:54:29;14.85;;;4.40;;
7477;SDS011;3780;42.424;25.636;2023-09-12T06:56:54;13.05;;;4.18;;
7477;SDS011;3780;42.424;25.636;2023-09-12T06:59:20;6.63;;;2.15;;
7477;SDS011;3780;42.424;25.636;2023-09-12T07:01:45;8.32;;;2.03;;
7477;SDS011;3780;42.424;25.636;2023-09-12T07:04:10;4.97;;;1.80;;
7477;SDS011;3780;42.424;25.636;2023-09-12T07:06:35;11.85;;;3.40;;
7477;SDS011;3780;42.424;25.636;2023-09-12T07:09:01;11.77;;;2.50;;
7477;SDS011;3780;42.424;25.636;2023-09-12T07:11:28;9.82;;;2.30;;
7477;SDS011;3780;42.424;25.636;2023-09-12T07:13:53;5.97;;;2.00;;
7477;SDS011;3780;42.424;25.636;2023-09-12T07:16:18;18.73;;;3.40;;
7477;SDS011;3780;42.424;25.636;2023-09-12T07:18:45;12.18;;;2.50;;
7477;SDS011;3780;42.424;25.636;2023-09-12T07:21:11;9.52;;;3.47;;
7477;SDS011;3780;42.424;25.636;2023-09-12T07:23:37;7.03;;;2.35;;
7477;SDS011;3780;42.424;25.636;2023-09-12T07:26:02;11.30;;;3.40;;
7477;SDS011;3780;42.424;25.636;2023-09-12T07:28:29;7.65;;;2.22;;
7477;SDS011;3780;42.424;25.636;2023-09-12T07:30:55;11.38;;;2.95;;
7477;SDS011;3780;42.424;25.636;2023-09-12T07:33:20;12.52;;;3.20;;
7477;SDS011;3780;42.424;25.636;2023-09-12T07:35:46;7.57;;;2.17;;
7477;SDS011;3780;42.424;25.636;2023-09-12T07:38:12;3.70;;;1.38;;
7477;SDS011;3780;42.424;25.636;2023-09-12T07:40:37;16.50;;;3.03;;
7477;SDS011;3780;42.424;25.636;2023-09-12T07:43:02;6.63;;;2.20;;
7477;SDS011;3780;42.424;25.636;2023-09-12T07:45:28;7.57;;;2.22;;
7477;SDS011;3780;42.424;25.636;2023-09-12T07:47:54;4.78;;;2.08;;
7477;SDS011;3780;42.424;25.636;2023-09-12T07:50:20;6.15;;;1.80;;
7477;SDS011;3780;42.424;25.636;2023-09-12T07:52:45;7.05;;;2.13;;
7477;SDS011;3780;42.424;25.636;2023-09-12T07:55:10;13.45;;;4.38;;
7477;SDS011;3780;42.424;25.636;2023-09-12T07:57:36;8.60;;;3.63;;
7477;SDS011;3780;42.424;25.636;2023-09-12T08:00:02;9.60;;;2.60;;
7477;SDS011;3780;42.424;25.636;2023-09-12T08:02:29;5.93;;;1.48;;
7477;SDS011;3780;42.424;25.636;2023-09-12T08:04:54;2.95;;;1.58;;
7477;SDS011;3780;42.424;25.636;2023-09-12T08:07:20;7.47;;;3.28;;
7477;SDS011;3780;42.424;25.636;2023-09-12T08:09:52;4.03;;;1.40;;
7477;SDS011;3780;42.424;25.636;2023-09-12T08:12:18;5.93;;;1.38;;
7477;SDS011;3780;42.424;25.636;2023-09-12T08:14:44;8.18;;;2.28;;
7477;SDS011;3780;42.424;25.636;2023-09-12T08:17:10;5.88;;;1.48;;
7477;SDS011;3780;42.424;25.636;2023-09-12T08:19:35;6.22;;;2.10;;
7477;SDS011;3780;42.424;25.636;2023-09-12T08:22:01;5.22;;;1.45;;
7477;SDS011;3780;42.424;25.636;2023-09-12T08:24:26;6.43;;;1.77;;
7477;SDS011;3780;42.424;25.636;2023-09-12T08:26:51;6.40;;;1.67;;
7477;SDS011;3780;42.424;25.636;2023-09-12T08:29:17;3.55;;;1.40;;
7477;SDS011;3780;42.424;25.636;2023-09-12T08:31:42;3.25;;;1.40;;
7477;SDS011;3780;42.424;25.636;2023-09-12T08:34:07;8.88;;;1.88;;
7477;SDS011;3780;42.424;25.636;2023-09-12T08:36:32;4.45;;;1.70;;
7477;SDS011;3780;42.424;25.636;2023-09-12T08:38:58;3.83;;;1.35;;
7477;SDS011;3780;42.424;25.636;2023-09-12T08:41:25;5.25;;;1.38;;
7477;SDS011;3780;42.424;25.636;2023-09-12T08:43:51;3.55;;;1.45;;
7477;SDS011;3780;42.424;25.636;2023-09-12T08:46:16;6.32;;;1.42;;
7477;SDS011;3780;42.424;25.636;2023-09-12T08:48:42;6.88;;;1.80;;
7477;SDS011;3780;42.424;25.636;2023-09-12T08:51:08;6.25;;;1.50;;
7477;SDS011;3780;42.424;25.636;2023-09-12T08:53:34;4.20;;;1.45;;
7477;SDS011;3780;42.424;25.636;2023-09-12T08:56:01;9.75;;;1.70;;
7477;SDS011;3780;42.424;25.636;2023-09-12T08:58:29;7.10;;;1.52;;
7477;SDS011;3780;42.424;25.636;2023-09-12T09:00:54;7.80;;;2.00;;
7477;SDS011;3780;42.424;25.636;2023-09-12T09:03:21;6.50;;;1.77;;
7477;SDS011;3780;42.424;25.636;2023-09-12T09:05:47;10.07;;;3.15;;
7477;SDS011;3780;42.424;25.636;2023-09-12T09:08:14;12.95;;;2.63;;
7477;SDS011;3780;42.424;25.636;2023-09-12T09:10:40;8.93;;;2.55;;
7477;SDS011;3780;42.424;25.636;2023-09-12T09:13:19;9.35;;;2.03;;
7477;SDS011;3780;42.424;25.636;2023-09-12T09:15:44;5.95;;;2.33;;
7477;SDS011;3780;42.424;25.636;2023-09-12T09:18:09;10.00;;;2.88;;
7477;SDS011;3780;42.424;25.636;2023-09-12T09:20:37;7.22;;;1.90;;
7477;SDS011;3780;42.424;25.636;2023-09-12T09:23:06;6.43;;;2.38;;
7477;SDS011;3780;42.424;25.636;2023-09-12T09:25:32;6.10;;;1.83;;
7477;SDS011;3780;42.424;25.636;2023-09-12T09:27:58;4.65;;;1.92;;
7477;SDS011;3780;42.424;25.636;2023-09-12T09:30:56;4.72;;;1.98;;
7477;SDS011;3780;42.424;25.636;2023-09-12T09:33:16;9.27;;;2.03;;
7477;SDS011;3780;42.424;25.636;2023-09-12T09:35:41;4.32;;;1.40;;
7477;SDS011;3780;42.424;25.636;2023-09-12T09:38:07;5.88;;;1.60;;
7477;SDS011;3780;42.424;25.636;2023-09-12T09:40:33;6.07;;;1.70;;
7477;SDS011;3780;42.424;25.636;2023-09-12T09:42:59;7.30;;;1.90;;
7477;SDS011;3780;42.424;25.636;2023-09-12T09:45:25;5.55;;;1.92;;
7477;SDS011;3780;42.424;25.636;2023-09-12T09:47:50;9.20;;;1.95;;
7477;SDS011;3780;42.424;25.636;2023-09-12T09:50:16;9.32;;;2.17;;
7477;SDS011;3780;42.424;25.636;2023-09-12T09:52:42;4.07;;;1.80;;
7477;SDS011;3780;42.424;25.636;2023-09-12T09:55:08;6.22;;;2.00;;
7477;SDS011;3780;42.424;25.636;2023-09-12T09:57:36;4.15;;;1.70;;
7477;SDS011;3780;42.424;25.636;2023-09-12T10:00:02;7.70;;;1.83;;
7477;SDS011;3780;42.424;25.636;2023-09-12T10:04:58;4.00;;;1.80;;
7477;SDS011;3780;42.424;25.636;2023-09-12T10:07:24;5.63;;;1.90;;
7477;SDS011;3780;42.424;25.636;2023-09-12T10:09:50;7.00;;;1.98;;
7477;SDS011;3780;42.424;25.636;2023-09-12T10:12:15;5.28;;;2.53;;
7477;SDS011;3780;42.424;25.636;2023-09-12T10:14:41;5.57;;;2.88;;
7477;SDS011;3780;42.424;25.636;2023-09-12T10:17:08;6.38;;;2.60;;
7477;SDS011;3780;42.424;25.636;2023-09-12T10:19:37;8.23;;;2.38;;
7477;SDS011;3780;42.424;25.636;2023-09-12T10:22:09;3.25;;;1.80;;
7477;SDS011;3780;42.424;25.636;2023-09-12T10:24:35;11.30;;;1.98;;
7477;SDS011;3780;42.424;25.636;2023-09-12T10:27:01;6.90;;;2.03;;
7477;SDS011;3780;42.424;25.636;2023-09-12T10:29:27;3.42;;;1.85;;
7477;SDS011;3780;42.424;25.636;2023-09-12T10:31:53;4.43;;;1.80;;
7477;SDS011;3780;42.424;25.636;2023-09-12T10:34:18;4.88;;;2.13;;
7477;SDS011;3780;42.424;25.636;2023-09-12T10:36:45;8.23;;;2.10;;
7477;SDS011;3780;42.424;25.636;2023-09-12T10:39:11;6.85;;;2.35;;
7477;SDS011;3780;42.424;25.636;2023-09-12T10:41:37;5.72;;;1.83;;
7477;SDS011;3780;42.424;25.636;2023-09-12T10:44:06;6.07;;;2.00;;
7477;SDS011;3780;42.424;25.636;2023-09-12T10:46:44;7.00;;;2.85;;
7477;SDS011;3780;42.424;25.636;2023-09-12T10:49:10;6.40;;;2.20;;
7477;SDS011;3780;42.424;25.636;2023-09-12T10:51:39;3.70;;;1.92;;
7477;SDS011;3780;42.424;25.636;2023-09-12T10:54:05;8.52;;;1.70;;
7477;SDS011;3780;42.424;25.636;2023-09-12T10:56:30;5.07;;;2.03;;
7477;SDS011;3780;42.424;25.636;2023-09-12T11:01:32;3.42;;;1.90;;
7477;SDS011;3780;42.424;25.636;2023-09-12T11:03:57;7.63;;;2.20;;
7477;SDS011;3780;42.424;25.636;2023-09-12T11:06:27;7.43;;;2.20;;
7477;SDS011;3780;42.424;25.636;2023-09-12T11:11:37;5.80;;;2.03;;
7477;SDS011;3780;42.424;25.636;2023-09-12T11:14:03;6.35;;;1.67;;
7477;SDS011;3780;42.424;25.636;2023-09-12T11:16:28;6.35;;;1.70;;
7477;SDS011;3780;42.424;25.636;2023-09-12T11:21:39;3.58;;;1.70;;
7477;SDS011;3780;42.424;25.636;2023-09-12T11:24:04;2.85;;;1.67;;
7477;SDS011;3780;42.424;25.636;2023-09-12T11:26:30;4.72;;;2.03;;
7477;SDS011;3780;42.424;25.636;2023-09-12T11:28:55;6.35;;;2.10;;
7477;SDS011;3780;42.424;25.636;2023-09-12T11:31:24;5.30;;;1.98;;
7477;SDS011;3780;42.424;25.636;2023-09-12T11:33:49;5.65;;;2.17;;
7477;SDS011;3780;42.424;25.636;2023-09-12T11:36:15;7.43;;;2.13;;
7477;SDS011;3780;42.424;25.636;2023-09-12T11:38:43;5.03;;;1.55;;
7477;SDS011;3780;42.424;25.636;2023-09-12T11:41:08;5.90;;;1.90;;
7477;SDS011;3780;42.424;25.636;2023-09-12T11:46:01;7.15;;;2.65;;
7477;SDS011;3780;42.424;25.636;2023-09-12T11:48:28;5.03;;;2.30;;
7477;SDS011;3780;42.424;25.636;2023-09-12T11:50:55;6.10;;;2.75;;
7477;SDS011;3780;42.424;25.636;2023-09-12T11:53:21;4.55;;;2.15;;
7477;SDS011;3780;42.424;25.636;2023-09-12T11:55:48;5.43;;;1.75;;
7477;SDS011;3780;42.424;25.636;2023-09-12T11:58:15;8.55;;;2.30;;
7477;SDS011;3780;42.424;25.636;2023-09-12T12:00:50;10.45;;;2.22;;
7477;SDS011;3780;42.424;25.636;2023-09-12T12:03:16;5.43;;;2.20;;
7477;SDS011;3780;42.424;25.636;2023-09-12T12:05:41;5.72;;;2.00;;
7477;SDS011;3780;42.424;25.636;2023-09-12T12:08:07;6.53;;;2.10;;
7477;SDS011;3780;42.424;25.636;2023-09-12T12:10:33;8.90;;;3.15;;
7477;SDS011;3780;42.424;25.636;2023-09-12T12:12:59;10.18;;;4.28;;
7477;SDS011;3780;42.424;25.636;2023-09-12T12:15:24;7.13;;;2.53;;
7477;SDS011;3780;42.424;25.636;2023-09-12T12:17:53;6.90;;;2.28;;
7477;SDS011;3780;42.424;25.636;2023-09-12T12:20:19;7.38;;;2.22;;
7477;SDS011;3780;42.424;25.636;2023-09-12T12:22:44;8.80;;;1.90;;
7477;SDS011;3780;42.424;25.636;2023-09-12T12:25:11;7.78;;;2.50;;
7477;SDS011;3780;42.424;25.636;2023-09-12T12:27:41;7.18;;;2.47;;
7477;SDS011;3780;42.424;25.636;2023-09-12T12:30:07;9.52;;;2.28;;
7477;SDS011;3780;42.424;25.636;2023-09-12T12:32:32;7.45;;;2.42;;
7477;SDS011;3780;42.424;25.636;2023-09-12T12:34:58;6.47;;;2.13;;
7477;SDS011;3780;42.424;25.636;2023-09-12T12:37:29;3.92;;;2.00;;
7477;SDS011;3780;42.424;25.636;2023-09-12T12:39:56;9.90;;;2.05;;
7477;SDS011;3780;42.424;25.636;2023-09-12T12:42:21;12.57;;;2.97;;
7477;SDS011;3780;42.424;25.636;2023-09-12T12:44:52;12.85;;;2.88;;
7477;SDS011;3780;42.424;25.636;2023-09-12T12:47:17;8.75;;;3.53;;
7477;SDS011;3780;42.424;25.636;2023-09-12T12:49:42;8.38;;;2.80;;
7477;SDS011;3780;42.424;25.636;2023-09-12T12:52:11;7.38;;;2.65;;
7477;SDS011;3780;42.424;25.636;2023-09-12T12:54:37;10.98;;;2.60;;
7477;SDS011;3780;42.424;25.636;2023-09-12T12:57:02;8.25;;;2.08;;
7477;SDS011;3780;42.424;25.636;2023-09-12T12:59:27;5.35;;;1.90;;
7477;SDS011;3780;42.424;25.636;2023-09-12T13:01:54;7.00;;;2.35;;
7477;SDS011;3780;42.424;25.636;2023-09-12T13:04:20;4.32;;;2.00;;
7477;SDS011;3780;42.424;25.636;2023-09-12T13:06:45;4.20;;;1.92;;
7477;SDS011;3780;42.424;25.636;2023-09-12T13:09:11;10.90;;;2.85;;
7477;SDS011;3780;42.424;25.636;2023-09-12T13:11:37;10.48;;;2.53;;
7477;SDS011;3780;42.424;25.636;2023-09-12T13:14:03;5.13;;;1.65;;
7477;SDS011;3780;42.424;25.636;2023-09-12T13:16:34;4.93;;;2.10;;
7477;SDS011;3780;42.424;25.636;2023-09-12T13:19:00;7.38;;;2.00;;
7477;SDS011;3780;42.424;25.636;2023-09-12T13:21:25;5.90;;;1.83;;
7477;SDS011;3780;42.424;25.636;2023-09-12T13:23:50;6.07;;;2.35;;
7477;SDS011;3780;42.424;25.636;2023-09-12T13:26:15;6.97;;;2.28;;
7477;SDS011;3780;42.424;25.636;2023-09-12T13:28:41;20.45;;;4.35;;
7477;SDS011;3780;42.424;25.636;2023-09-12T13:31:06;6.50;;;1.90;;
7477;SDS011;3780;42.424;25.636;2023-09-12T13:33:32;11.68;;;3.78;;
7477;SDS011;3780;42.424;25.636;2023-09-12T13:35:57;8.02;;;2.85;;
7477;SDS011;3780;42.424;25.636;2023-09-12T13:38:22;8.15;;;2.75;;
7477;SDS011;3780;42.424;25.636;2023-09-12T13:40:48;9.93;;;2.13;;
7477;SDS011;3780;42.424;25.636;2023-09-12T13:43:13;4.63;;;1.88;;
7477;SDS011;3780;42.424;25.636;2023-09-12T13:45:39;4.97;;;1.60;;
7477;SDS011;3780;42.424;25.636;2023-09-12T13:48:05;5.72;;;2.28;;
7477;SDS011;3780;42.424;25.636;2023-09-12T13:50:31;12.70;;;2.75;;
7477;SDS011;3780;42.424;25.636;2023-09-12T13:53:00;5.13;;;2.30;;
7477;SDS011;3780;42.424;25.636;2023-09-12T13:55:28;7.85;;;2.20;;
7477;SDS011;3780;42.424;25.636;2023-09-12T13:57:54;4.90;;;2.83;;
7477;SDS011;3780;42.424;25.636;2023-09-12T14:00:19;11.07;;;7.25;;
7477;SDS011;3780;42.424;25.636;2023-09-12T14:02:45;11.00;;;5.10;;
7477;SDS011;3780;42.424;25.636;2023-09-12T14:05:11;7.63;;;2.20;;
7477;SDS011;3780;42.424;25.636;2023-09-12T14:07:37;12.45;;;3.33;;
7477;SDS011;3780;42.424;25.636;2023-09-12T14:10:03;6.47;;;2.67;;
7477;SDS011;3780;42.424;25.636;2023-09-12T14:12:28;6.00;;;2.22;;
7477;SDS011;3780;42.424;25.636;2023-09-12T14:14:54;9.23;;;2.30;;
7477;SDS011;3780;42.424;25.636;2023-09-12T14:17:19;7.72;;;2.95;;
7477;SDS011;3780;42.424;25.636;2023-09-12T14:19:45;7.15;;;2.42;;
7477;SDS011;3780;42.424;25.636;2023-09-12T14:22:10;14.80;;;3.03;;
7477;SDS011;3780;42.424;25.636;2023-09-12T14:24:36;14.93;;;2.55;;
7477;SDS011;3780;42.424;25.636;2023-09-12T14:27:01;7.43;;;2.28;;
7477;SDS011;3780;42.424;25.636;2023-09-12T14:29:26;10.43;;;3.67;;
7477;SDS011;3780;42.424;25.636;2023-09-12T14:31:55;9.10;;;3.00;;
7477;SDS011;3780;42.424;25.636;2023-09-12T15:15:38;7.38;;;2.22;;
7477;SDS011;3780;42.424;25.636;2023-09-12T15:18:04;4.10;;;2.20;;
7477;SDS011;3780;42.424;25.636;2023-09-12T15:20:29;7.60;;;2.38;;
7477;SDS011;3780;42.424;25.636;2023-09-12T15:22:54;10.38;;;2.80;;
7477;SDS011;3780;42.424;25.636;2023-09-12T15:25:20;6.78;;;2.30;;
7477;SDS011;3780;42.424;25.636;2023-09-12T15:27:45;4.28;;;2.53;;
7477;SDS011;3780;42.424;25.636;2023-09-12T15:30:10;7.23;;;2.10;;
7477;SDS011;3780;42.424;25.636;2023-09-12T15:49:32;9.25;;;5.00;;
7477;SDS011;3780;42.424;25.636;2023-09-12T15:51:57;9.15;;;3.85;;
7477;SDS011;3780;42.424;25.636;2023-09-12T15:54:23;16.33;;;12.90;;
7477;SDS011;3780;42.424;25.636;2023-09-12T15:56:49;10.13;;;2.30;;
7477;SDS011;3780;42.424;25.636;2023-09-12T15:59:14;5.85;;;2.67;;
7477;SDS011;3780;42.424;25.636;2023-09-12T16:01:39;11.10;;;3.38;;
7477;SDS011;3780;42.424;25.636;2023-09-12T16:04:05;6.45;;;2.90;;
7477;SDS011;3780;42.424;25.636;2023-09-12T16:06:30;9.40;;;3.63;;
7477;SDS011;3780;42.424;25.636;2023-09-12T16:08:55;6.70;;;2.78;;